Time;durP1;ratioP1;P1;durP2;ratioP2;P2;SDS_P1;SDS_P2;PMS_P1;PMS_P2;Temp;Humidity;BMP_temperature;BMP_pressure;BME280_temperature;BME280_humidity;BME280_pressure;Samples;Min_cycle;Max_cycle;Signal;HPM_P1;HPM_P2
2022/10/09 00:01:13;;;;;;;10.30;4.15;;;;;;;14.28;100.00;99366.09;4277928;33;20388;-68
2022/10/09 00:03:43;;;;;;;7.53;3.75;;;;;;;14.16;100.00;99374.44;4298633;33;20169;-69
2022/10/09 00:06:13;;;;;;;5.05;3.75;;;;;;;13.84;100.00;99363.72;4290542;33;20048;-69
2022/10/09 00:08:42;;;;;;;14.93;3.85;;;;;;;14.19;100.00;99373.09;4282520;33;20059;-69
2022/10/09 00:11:14;;;;;;;9.18;4.18;;;;;;;13.94;100.00;99371.09;4267284;33;20046;-69
2022/10/09 00:13:42;;;;;;;11.80;4.40;;;;;;;13.85;100.00;99378.06;4237649;33;20072;-72
2022/10/09 00:16:11;;;;;;;8.90;4.25;;;;;;;13.69;100.00;99348.25;4232037;33;20031;-69
2022/10/09 00:18:38;;;;;;;7.90;4.30;;;;;;;13.78;100.00;99378.31;4235835;33;20038;-69
2022/10/09 00:21:13;;;;;;;8.10;4.87;;;;;;;13.68;100.00;99383.69;4239240;33;20035;-69
2022/10/09 00:23:39;;;;;;;14.27;4.50;;;;;;;13.70;100.00;99403.97;4238918;33;20307;-76
2022/10/09 00:26:07;;;;;;;8.77;4.95;;;;;;;13.40;100.00;99394.59;4237376;33;20103;-69
2022/10/09 00:28:33;;;;;;;13.07;4.43;;;;;;;12.88;100.00;99350.06;4238043;33;20076;-69
2022/10/09 00:31:03;;;;;;;6.80;4.85;;;;;;;13.07;100.00;99380.22;4238560;33;20948;-69
2022/10/09 00:33:29;;;;;;;14.18;4.65;;;;;;;13.11;100.00;99385.94;4239450;33;20047;-69
2022/10/09 00:35:56;;;;;;;10.10;4.10;;;;;;;12.93;100.00;99389.84;4237282;33;20077;-75
2022/10/09 00:38:22;;;;;;;11.25;4.85;;;;;;;13.51;100.00;99400.84;4266500;33;20170;-69
2022/10/09 00:40:48;;;;;;;11.40;5.55;;;;;;;13.15;100.00;99370.84;4267544;33;20052;-69
2022/10/09 00:43:19;;;;;;;7.50;4.43;;;;;;;13.02;100.00;99392.88;4267418;33;20407;-68
2022/10/09 00:45:52;;;;;;;14.07;4.87;;;;;;;12.96;100.00;99405.53;4264871;33;20061;-69
2022/10/09 00:48:19;;;;;;;14.05;4.70;;;;;;;12.80;100.00;99364.03;4278140;33;20037;-69
2022/10/09 00:50:52;;;;;;;12.05;6.32;;;;;;;12.89;100.00;99367.09;4304903;33;20075;-69
2022/10/09 00:53:21;;;;;;;12.00;4.20;;;;;;;13.09;100.00;99393.50;4303866;33;20130;-70
2022/10/09 00:55:48;;;;;;;11.07;4.22;;;;;;;13.41;100.00;99395.41;4308461;33;20062;-71
2022/10/09 00:58:15;;;;;;;5.78;3.80;;;;;;;12.96;100.00;99313.66;4310214;33;20036;-69
2022/10/09 01:00:42;;;;;;;9.85;4.22;;;;;;;13.43;100.00;99399.47;4298845;33;20041;-68
2022/10/09 01:03:08;;;;;;;9.90;5.18;;;;;;;13.24;100.00;99403.59;4283480;33;20037;-74
2022/10/09 01:05:48;;;;;;;11.15;4.18;;;;;;;13.31;100.00;99412.34;4279371;33;20023;-68
2022/10/09 01:08:21;;;;;;;11.77;4.70;;;;;;;13.56;100.00;99402.78;4251586;33;20038;-68
2022/10/09 01:11:02;;;;;;;7.87;4.20;;;;;;;13.57;100.00;99409.84;4252593;33;20414;-69
2022/10/09 01:13:38;;;;;;;;;;;;;;;13.37;100.00;99373.47;4253458;33;20078;-68
2022/10/09 01:16:18;;;;;;;11.73;5.20;;;;;;;13.37;100.00;99415.91;4251254;33;19933;-68
2022/10/09 01:19:00;;;;;;;15.85;4.57;;;;;;;13.57;100.00;99417.97;4249307;33;20080;-73
2022/10/09 01:21:50;;;;;;;12.05;4.43;;;;;;;13.42;100.00;99408.66;4248348;33;20071;-69
2022/10/09 01:24:52;;;;;;;11.68;4.85;;;;;;;13.65;100.00;99416.66;4237854;33;20416;-76
2022/10/09 01:27:24;;;;;;;15.43;5.62;;;;;;;13.36;100.00;99417.00;4239288;33;20050;-69
2022/10/09 01:30:05;;;;;;;11.02;5.72;;;;;;;13.71;100.00;99427.25;4236764;33;20039;-75
2022/10/09 01:32:36;;;;;;;8.82;5.60;;;;;;;13.26;100.00;99377.16;4238712;33;20075;-69
2022/10/09 01:35:05;;;;;;;9.25;4.75;;;;;;;13.56;100.00;99432.56;4246365;33;21022;-70
2022/10/09 01:37:33;;;;;;;11.35;5.57;;;;;;;13.41;100.00;99428.66;4276611;33;20059;-69
2022/10/09 01:40:00;;;;;;;16.83;5.30;;;;;;;13.44;100.00;99428.13;4293759;33;20063;-70
2022/10/09 01:42:28;;;;;;;10.30;5.53;;;;;;;13.22;100.00;99440.91;4307251;33;20688;-69
2022/10/09 01:44:55;;;;;;;10.55;5.15;;;;;;;13.11;100.00;99440.00;4296081;33;20396;-68
2022/10/09 01:47:21;;;;;;;13.25;5.53;;;;;;;13.60;100.00;99436.37;4298238;33;20032;-68
2022/10/09 01:49:58;;;;;;;13.27;5.28;;;;;;;13.56;100.00;99451.50;4307621;33;20372;-74
2022/10/09 01:52:37;;;;;;;11.77;4.78;;;;;;;13.38;100.00;99450.81;4309549;33;20060;-68
2022/10/09 01:55:38;;;;;;;6.45;4.90;;;;;;;13.01;100.00;99413.69;4295562;33;20136;-68
2022/10/09 01:58:23;;;;;;;5.68;4.62;;;;;;;13.37;100.00;99451.91;4295477;33;20066;-68
2022/10/09 02:01:01;;;;;;;9.20;5.43;;;;;;;13.63;100.00;99458.31;4292841;33;20464;-70
2022/10/09 02:03:29;;;;;;;15.73;6.75;;;;;;;12.75;100.00;99439.66;4288162;33;20053;-69
2022/10/09 02:05:56;;;;;;;8.07;4.78;;;;;;;13.62;100.00;99466.69;4286390;33;20043;-69
2022/10/09 02:08:24;;;;;;;9.57;4.78;;;;;;;13.58;100.00;99422.31;4279670;33;20029;-69
2022/10/09 02:10:55;;;;;;;10.52;4.80;;;;;;;13.57;100.00;99437.69;4292453;33;20536;-75
2022/10/09 02:13:22;;;;;;;11.93;5.53;;;;;;;13.89;100.00;99472.03;4294717;33;20096;-69
2022/10/09 02:16:10;;;;;;;7.87;4.10;;;;;;;13.76;100.00;99467.87;4294363;33;20028;-69
2022/10/09 02:18:44;;;;;;;16.62;4.45;;;;;;;13.58;100.00;99460.19;4293721;33;20113;-75
2022/10/09 02:21:16;;;;;;;13.40;3.80;;;;;;;13.33;100.00;99442.66;4295042;33;20075;-69
2022/10/09 02:23:45;;;;;;;9.45;5.75;;;;;;;13.61;100.00;99481.31;4250376;33;20482;-68
2022/10/09 02:26:12;;;;;;;7.95;4.05;;;;;;;13.61;100.00;99454.25;4266233;33;20344;-68
2022/10/09 02:28:39;;;;;;;6.05;4.25;;;;;;;13.68;100.00;99484.59;4278929;33;20070;-74
2022/10/09 02:31:16;;;;;;;10.02;4.60;;;;;;;13.43;100.00;99485.19;4279547;33;20137;-68
2022/10/09 02:33:42;;;;;;;16.40;4.55;;;;;;;13.27;100.00;99492.31;4268077;33;20131;-68
2022/10/09 02:36:09;;;;;;;11.02;4.20;;;;;;;13.13;100.00;99485.69;4280194;33;20459;-70
2022/10/09 02:38:35;;;;;;;8.50;4.10;;;;;;;13.42;100.00;99484.41;4276192;33;20047;-69
2022/10/09 02:41:01;;;;;;;6.32;3.95;;;;;;;13.46;100.00;99489.28;4266123;33;20038;-69
2022/10/09 02:43:28;;;;;;;9.35;4.32;;;;;;;13.05;100.00;99449.12;4266024;33;20050;-69
2022/10/09 02:45:54;;;;;;;14.40;4.45;;;;;;;13.37;100.00;99473.53;4265084;33;20084;-69
2022/10/09 02:48:21;;;;;;;10.20;4.20;;;;;;;13.19;100.00;99500.91;4266095;33;20063;-69
2022/10/09 02:50:48;;;;;;;8.98;3.62;;;;;;;13.15;100.00;99500.59;4265090;33;20065;-70
2022/10/09 02:53:14;;;;;;;8.65;3.55;;;;;;;12.92;100.00;99461.16;4251156;33;20034;-69
2022/10/09 02:55:40;;;;;;;11.10;4.00;;;;;;;12.85;100.00;99495.69;4251895;33;20345;-67
2022/10/09 02:58:07;;;;;;;6.82;4.03;;;;;;;12.48;100.00;99463.94;4258957;33;20068;-69
2022/10/09 03:00:33;;;;;;;6.28;3.70;;;;;;;12.22;100.00;99493.31;4266259;33;20064;-69
2022/10/09 03:03:00;;;;;;;10.52;4.20;;;;;;;12.40;100.00;99462.47;4281446;33;20045;-74
2022/10/09 03:05:26;;;;;;;9.40;4.25;;;;;;;12.20;100.00;99517.00;4293966;33;20175;-69
2022/10/09 03:07:52;;;;;;;6.47;4.05;;;;;;;11.91;100.00;99482.03;4294535;33;20055;-69
2022/10/09 03:10:20;;;;;;;5.10;3.83;;;;;;;11.85;100.00;99477.59;4294301;33;20067;-69
2022/10/09 03:12:52;;;;;;;12.20;4.95;;;;;;;12.34;100.00;99464.28;4280214;33;20085;-67
2022/10/09 03:15:18;;;;;;;;;;;;;;;12.51;100.00;99512.84;4277364;33;20033;-68
2022/10/09 03:17:45;;;;;;;6.93;3.72;;;;;;;12.21;100.00;99518.66;4288237;33;20755;-68
2022/10/09 03:20:11;;;;;;;6.53;3.97;;;;;;;12.09;100.00;99461.25;4296073;33;20045;-68
2022/10/09 03:22:37;;;;;;;14.80;4.70;;;;;;;12.41;100.00;99528.09;4277702;33;20034;-67
2022/10/09 03:25:04;;;;;;;6.85;4.60;;;;;;;12.57;100.00;99548.84;4294111;33;20037;-71
2022/10/09 03:27:31;;;;;;;8.45;4.40;;;;;;;12.16;100.00;99532.09;4309585;33;20040;-68
2022/10/09 03:29:58;;;;;;;10.40;4.95;;;;;;;12.25;100.00;99546.78;4297612;33;20045;-68
2022/10/09 03:32:24;;;;;;;14.23;4.87;;;;;;;11.97;100.00;99497.25;4311699;33;20041;-68
2022/10/09 03:34:51;;;;;;;7.65;4.47;;;;;;;12.01;100.00;99531.84;4296344;33;20041;-68
2022/10/09 03:37:17;;;;;;;9.18;5.20;;;;;;;12.21;100.00;99545.66;4292298;33;20071;-73
2022/10/09 03:39:43;;;;;;;9.60;4.95;;;;;;;12.47;100.00;99543.31;4281390;33;20063;-69
2022/10/09 03:42:10;;;;;;;5.32;4.57;;;;;;;12.17;100.00;99549.91;4282810;33;20067;-69
2022/10/09 03:44:36;;;;;;;8.60;5.35;;;;;;;12.02;100.00;99541.59;4281826;33;20077;-69
2022/10/09 03:47:02;;;;;;;11.27;6.12;;;;;;;11.73;100.00;99528.16;4280712;33;20393;-69
2022/10/09 03:49:29;;;;;;;8.30;5.30;;;;;;;12.31;100.00;99562.00;4263570;33;20052;-70
2022/10/09 03:51:55;;;;;;;10.48;6.37;;;;;;;12.08;100.00;99548.72;4250977;33;20031;-69
2022/10/09 03:54:21;;;;;;;11.30;5.75;;;;;;;12.31;100.00;99556.59;4261700;33;20030;-68
2022/10/09 03:56:48;;;;;;;8.07;5.78;;;;;;;12.10;100.00;99549.28;4271576;33;20059;-69
2022/10/09 03:59:14;;;;;;;11.77;5.30;;;;;;;11.87;100.00;99563.72;4254352;33;20059;-68
2022/10/09 04:01:40;;;;;;;11.57;5.57;;;;;;;11.73;100.00;99534.38;4251404;33;20116;-72
2022/10/09 04:04:07;;;;;;;14.98;6.22;;;;;;;11.90;100.00;99523.59;4253996;33;20081;-69
2022/10/09 04:06:33;;;;;;;9.57;5.95;;;;;;;11.86;100.00;99565.59;4262856;33;20051;-68
2022/10/09 04:09:00;;;;;;;18.42;6.80;;;;;;;11.86;100.00;99565.59;4266578;33;20022;-68
2022/10/09 04:11:27;;;;;;;12.70;5.57;;;;;;;11.85;100.00;99568.53;4288816;33;20088;-73
2022/10/09 04:13:53;;;;;;;11.95;5.97;;;;;;;11.93;100.00;99571.66;4316482;33;20064;-69
2022/10/09 04:16:19;;;;;;;6.70;5.62;;;;;;;11.85;100.00;99573.94;4310759;33;20037;-69
2022/10/09 04:18:46;;;;;;;10.63;5.28;;;;;;;11.59;100.00;99533.03;4321522;33;20032;-69
2022/10/09 04:21:13;;;;;;;10.13;5.15;;;;;;;11.70;100.00;99536.75;4316339;33;20154;-69
2022/10/09 04:23:39;;;;;;;10.40;5.00;;;;;;;12.10;100.00;99533.06;4311692;33;20344;-75
2022/10/09 04:26:06;;;;;;;11.68;5.18;;;;;;;11.84;100.00;99562.34;4312804;33;20082;-69
2022/10/09 04:28:32;;;;;;;11.02;5.12;;;;;;;11.50;100.00;99573.06;4325207;33;20036;-69
2022/10/09 04:30:58;;;;;;;17.37;7.53;;;;;;;12.08;100.00;99594.59;4309315;33;20062;-69
2022/10/09 04:33:26;;;;;;;9.90;5.10;;;;;;;11.85;100.00;99601.72;4280344;33;20037;-69
2022/10/09 04:35:54;;;;;;;14.68;5.25;;;;;;;11.81;100.00;99579.81;4280410;33;20047;-74
2022/10/09 04:38:21;;;;;;;12.27;5.37;;;;;;;12.03;100.00;99597.19;4266846;33;20042;-68
2022/10/09 04:41:14;;;;;;;19.17;5.60;;;;;;;11.02;100.00;99558.16;4266280;33;20060;-68
2022/10/09 04:43:40;;;;;;;10.45;4.97;;;;;;;12.15;100.00;99595.22;4235349;33;20068;-73
2022/10/09 04:46:10;;;;;;;12.63;5.28;;;;;;;11.83;100.00;99555.28;4222178;33;20102;-68
2022/10/09 04:48:41;;;;;;;11.00;4.85;;;;;;;11.91;100.00;99567.56;4223548;33;20052;-69
2022/10/09 04:51:09;;;;;;;7.55;5.35;;;;;;;11.90;100.00;99604.53;4209742;34;20050;-69
2022/10/09 04:53:36;;;;;;;6.85;5.47;;;;;;;11.63;100.00;99570.09;4205691;34;20084;-72
2022/10/09 04:56:08;;;;;;;11.63;5.32;;;;;;;11.11;100.00;99586.38;4196057;34;20051;-70
2022/10/09 04:58:36;;;;;;;9.75;4.90;;;;;;;11.71;100.00;99627.37;4196668;34;20092;-69
2022/10/09 05:01:28;;;;;;;9.93;5.85;;;;;;;11.51;100.00;99609.78;4195700;34;20027;-69
2022/10/09 05:03:55;;;;;;;10.82;6.22;;;;;;;11.74;100.00;99632.28;4204560;34;20371;-69
2022/10/09 05:06:23;;;;;;;9.60;5.62;;;;;;;11.32;100.00;99627.22;4206204;34;20050;-69
2022/10/09 05:08:50;;;;;;;10.77;4.85;;;;;;;11.64;100.00;99627.53;4200691;34;20057;-70
2022/10/09 05:11:22;;;;;;;11.48;5.05;;;;;;;11.61;100.00;99628.81;4219262;33;20347;-70
2022/10/09 05:13:52;;;;;;;8.50;5.60;;;;;;;11.31;100.00;99580.53;4224961;33;20072;-70
2022/10/09 05:16:21;;;;;;;13.80;5.18;;;;;;;11.69;100.00;99635.72;4223007;33;20173;-70
2022/10/09 05:18:51;;;;;;;12.43;5.45;;;;;;;11.64;100.00;99633.75;4235240;33;20051;-72
2022/10/09 05:21:18;;;;;;;9.20;5.07;;;;;;;11.69;100.00;99640.28;4259875;33;20045;-69
2022/10/09 05:23:45;;;;;;;8.25;5.03;;;;;;;11.91;100.00;99632.31;4281078;33;20079;-69
2022/10/09 05:26:17;;;;;;;19.05;4.75;;;;;;;11.37;100.00;99649.69;4280933;33;20160;-69
2022/10/09 05:28:44;;;;;;;;;;;;;;;11.55;100.00;99608.25;4275752;33;20030;-70
2022/10/09 05:31:17;;;;;;;12.50;5.65;;;;;;;12.14;100.00;99647.56;4279190;33;19948;-70
2022/10/09 05:33:44;;;;;;;10.45;5.85;;;;;;;11.68;100.00;99614.38;4280644;33;20077;-70
2022/10/09 05:36:10;;;;;;;7.47;4.50;;;;;;;12.01;100.00;99664.09;4281164;33;20046;-69
2022/10/09 05:38:37;;;;;;;6.95;4.78;;;;;;;12.11;100.00;99648.06;4277414;33;20442;-69
2022/10/09 05:41:05;;;;;;;9.07;4.70;;;;;;;11.65;100.00;99661.56;4280628;33;20049;-70
2022/10/09 05:43:35;;;;;;;12.48;5.53;;;;;;;11.48;100.00;99666.88;4274452;33;20042;-69
2022/10/09 05:46:15;;;;;;;10.98;5.53;;;;;;;11.78;100.00;99660.44;4264842;33;20049;-70
2022/10/09 05:48:45;;;;;;;12.25;5.12;;;;;;;11.91;100.00;99665.50;4265053;33;20099;-69
2022/10/09 05:51:13;;;;;;;11.98;5.47;;;;;;;11.99;100.00;99667.03;4251472;33;20200;-68
2022/10/09 05:53:42;;;;;;;12.63;6.25;;;;;;;11.87;100.00;99672.47;4262273;33;20021;-68
2022/10/09 05:56:22;;;;;;;11.07;5.50;;;;;;;11.93;100.00;99678.78;4266325;33;20045;-69
2022/10/09 05:58:51;;;;;;;10.75;5.25;;;;;;;11.46;100.00;99674.41;4249888;33;20104;-70
2022/10/09 06:01:18;;;;;;;7.43;4.62;;;;;;;11.89;100.00;99677.62;4237490;33;20050;-69
2022/10/09 06:03:50;;;;;;;19.87;5.82;;;;;;;10.99;100.00;99658.34;4236834;33;20027;-70
2022/10/09 06:06:17;;;;;;;17.65;5.00;;;;;;;11.81;100.00;99686.94;4236047;33;20115;-73
2022/10/09 06:08:44;;;;;;;13.48;5.22;;;;;;;11.73;100.00;99695.41;4238526;33;20393;-71
2022/10/09 06:11:33;;;;;;;10.88;6.12;;;;;;;11.76;100.00;99694.94;4236931;33;20034;-68
2022/10/09 06:14:02;;;;;;;11.98;5.00;;;;;;;12.11;100.00;99707.44;4236007;33;20042;-74
2022/10/09 06:16:32;;;;;;;8.98;5.22;;;;;;;11.67;100.00;99712.56;4239176;33;20073;-70
2022/10/09 06:18:59;;;;;;;14.50;4.65;;;;;;;11.62;100.00;99719.47;4249449;33;20061;-70
2022/10/09 06:21:26;;;;;;;5.82;4.47;;;;;;;11.66;100.00;99722.50;4255847;33;20433;-69
2022/10/09 06:23:55;;;;;;;4.80;4.30;;;;;;;11.57;100.00;99711.28;4276231;33;20052;-73
2022/10/09 06:26:23;;;;;;;8.85;4.80;;;;;;;11.79;100.00;99722.25;4276657;33;20025;-71
2022/10/09 06:28:50;;;;;;;7.30;4.20;;;;;;;11.39;100.00;99689.88;4288103;33;20083;-70
2022/10/09 06:31:20;;;;;;;10.63;4.95;;;;;;;11.72;100.00;99693.75;4303059;33;20059;-69
2022/10/09 06:33:48;;;;;;;9.90;5.00;;;;;;;11.90;100.00;99733.22;4309148;33;20041;-76
2022/10/09 06:36:17;;;;;;;10.35;4.60;;;;;;;11.76;100.00;99738.91;4291560;33;20058;-69
2022/10/09 06:38:43;;;;;;;11.02;4.35;;;;;;;11.30;100.00;99707.50;4294543;33;20145;-70
2022/10/09 06:41:15;;;;;;;9.93;4.20;;;;;;;11.82;100.00;99753.31;4289812;33;20045;-70
2022/10/09 06:43:42;;;;;;;;;;;;;;;11.72;100.00;99758.50;4276869;33;20045;-70
2022/10/09 06:46:11;;;;;;;9.95;4.12;;;;;;;12.12;100.00;99754.97;4263142;33;19963;-70
2022/10/09 06:48:38;;;;;;;6.97;4.35;;;;;;;11.88;100.00;99711.06;4265995;33;20120;-69
2022/10/09 06:51:12;;;;;;;8.50;5.30;;;;;;;11.60;100.00;99762.06;4265246;33;20041;-69
2022/10/09 06:53:44;;;;;;;6.75;5.00;;;;;;;12.04;100.00;99756.19;4265166;33;20050;-71
2022/10/09 06:56:11;;;;;;;8.93;4.87;;;;;;;11.97;100.00;99767.13;4263378;33;20046;-72
2022/10/09 06:58:39;;;;;;;12.75;5.62;;;;;;;11.96;100.00;99760.09;4265775;33;20202;-71
2022/10/09 07:01:11;;;;;;;10.90;4.57;;;;;;;11.93;100.00;99732.78;4266800;33;20486;-71
2022/10/09 07:03:40;;;;;;;6.00;4.47;;;;;;;12.33;100.00;99775.91;4264119;33;20111;-73
2022/10/09 07:06:14;;;;;;;12.65;5.37;;;;;;;11.96;100.00;99781.69;4274535;33;20051;-72
2022/10/09 07:08:44;;;;;;;7.78;4.80;;;;;;;11.46;100.00;99744.50;4300747;33;20037;-72
2022/10/09 07:11:19;;;;;;;10.75;5.37;;;;;;;11.69;100.00;99789.47;4301253;33;20398;-71
2022/10/09 07:13:47;;;;;;;7.55;5.10;;;;;;;11.86;100.00;99776.06;4299621;33;20037;-76
2022/10/09 07:16:21;;;;;;;8.82;5.03;;;;;;;11.95;100.00;99753.06;4294686;33;20198;-71
2022/10/09 07:18:47;;;;;;;11.55;6.43;;;;;;;11.91;100.00;99784.25;4293416;33;20114;-71
2022/10/09 07:21:14;;;;;;;13.13;5.45;;;;;;;11.77;100.00;99761.31;4294544;33;20111;-72
2022/10/09 07:23:41;;;;;;;17.08;6.65;;;;;;;11.61;100.00;99789.84;4292196;33;20051;-77
2022/10/09 07:26:20;;;;;;;8.05;5.15;;;;;;;11.04;100.00;99768.91;4294650;33;20457;-71
2022/10/09 07:28:47;;;;;;;13.62;5.53;;;;;;;11.53;100.00;99812.59;4294822;33;20462;-72
2022/10/09 07:31:14;;;;;;;10.02;5.78;;;;;;;11.54;100.00;99810.75;4292169;33;20041;-70
2022/10/09 07:33:40;;;;;;;15.57;5.85;;;;;;;11.77;100.00;99807.16;4302466;33;20044;-72
2022/10/09 07:36:09;;;;;;;13.43;4.75;;;;;;;11.87;100.00;99810.09;4321466;33;20088;-72
2022/10/09 07:38:43;;;;;;;14.02;5.35;;;;;;;12.02;100.00;99816.88;4314289;33;20044;-72
2022/10/09 07:41:11;;;;;;;17.17;6.43;;;;;;;11.64;100.00;99763.22;4314306;33;20454;-73
2022/10/09 07:43:40;;;;;;;10.55;5.53;;;;;;;11.64;100.00;99811.75;4312780;33;20037;-72
2022/10/09 07:46:10;;;;;;;31.60;7.53;;;;;;;11.73;100.00;99781.75;4312512;33;20041;-71
2022/10/09 07:48:38;;;;;;;11.05;5.22;;;;;;;11.63;100.00;99826.31;4300945;33;20080;-71
2022/10/09 07:51:15;;;;;;;10.93;5.12;;;;;;;11.63;100.00;99788.56;4301413;33;20216;-76
2022/10/09 07:53:42;;;;;;;6.10;4.47;;;;;;;11.87;100.00;99831.69;4294077;33;20827;-71
2022/10/09 07:56:14;;;;;;;12.13;4.40;;;;;;;11.80;100.00;99777.03;4282471;33;20071;-71
2022/10/09 07:58:42;;;;;;;5.62;4.47;;;;;;;12.15;100.00;99832.78;4289620;33;20699;-72
2022/10/09 08:01:09;;;;;;;9.85;4.85;;;;;;;11.59;100.00;99821.62;4290220;33;20065;-73
2022/10/09 08:03:37;;;;;;;19.23;5.18;;;;;;;12.01;100.00;99826.03;4288549;33;20033;-74
2022/10/09 08:06:04;;;;;;;8.43;4.80;;;;;;;12.20;100.00;99815.88;4292537;33;20099;-71
2022/10/09 08:08:30;;;;;;;12.98;5.55;;;;;;;12.04;100.00;99828.25;4300511;33;20063;-72
2022/10/09 08:10:57;;;;;;;12.77;5.60;;;;;;;11.93;100.00;99782.16;4286830;33;20114;-73
2022/10/09 08:13:23;;;;;;;8.25;3.85;;;;;;;11.97;100.00;99796.81;4283251;33;20048;-77
2022/10/09 08:15:50;;;;;;;8.80;4.40;;;;;;;11.89;100.00;99845.75;4284375;33;20041;-71
2022/10/09 08:18:16;;;;;;;12.02;4.20;;;;;;;11.98;100.00;99847.06;4286107;33;20454;-71
2022/10/09 08:20:42;;;;;;;6.45;4.30;;;;;;;12.22;100.00;99843.44;4306729;33;20067;-71
2022/10/09 08:23:09;;;;;;;10.88;4.15;;;;;;;12.30;100.00;99843.91;4293796;33;20063;-71
2022/10/09 08:25:36;;;;;;;11.77;4.30;;;;;;;11.92;100.00;99818.31;4293005;33;20442;-72
2022/10/09 08:28:03;;;;;;;7.87;5.05;;;;;;;12.30;100.00;99848.44;4295475;33;20079;-71
2022/10/09 08:30:30;;;;;;;10.15;4.40;;;;;;;12.50;100.00;99858.84;4278920;33;20059;-72
2022/10/09 08:32:57;;;;;;;14.80;4.78;;;;;;;12.26;100.00;99850.81;4280238;33;20059;-71
2022/10/09 08:35:23;;;;;;;4.82;3.25;;;;;;;12.47;100.00;99854.72;4279393;33;20064;-71
2022/10/09 08:37:50;;;;;;;13.07;4.18;;;;;;;12.60;100.00;99864.41;4266657;33;20429;-73
2022/10/09 08:40:29;;;;;;;8.35;5.25;;;;;;;12.46;100.00;99844.16;4280802;33;20905;-72
2022/10/09 08:43:02;;;;;;;10.60;3.67;;;;;;;12.85;100.00;99860.53;4273329;33;20049;-71
2022/10/09 08:45:32;;;;;;;6.25;4.37;;;;;;;12.31;100.00;99842.81;4271464;33;20067;-78
2022/10/09 08:48:09;;;;;;;5.47;3.97;;;;;;;12.51;100.00;99826.19;4274343;33;20802;-72
2022/10/09 08:50:39;;;;;;;6.18;3.28;;;;;;;11.79;100.00;99818.53;4264981;33;20175;-70
2022/10/09 08:53:36;;;;;;;11.25;4.57;;;;;;;12.75;100.00;99876.56;4265448;33;20063;-69
2022/10/09 08:56:10;;;;;;;5.68;3.08;;;;;;;12.51;100.00;99836.16;4266008;33;20033;-72
2022/10/09 08:58:40;;;;;;;5.85;3.37;;;;;;;12.58;100.00;99885.44;4252247;33;20054;-71
2022/10/09 09:01:18;;;;;;;8.27;3.53;;;;;;;12.69;100.00;99887.28;4248689;33;20030;-72
2022/10/09 09:03:59;;;;;;;4.45;3.50;;;;;;;13.01;100.00;99881.34;4250463;33;20038;-71
2022/10/09 09:06:56;;;;;;;12.40;3.33;;;;;;;12.97;100.00;99839.66;4250095;33;20035;-76
2022/10/09 09:09:52;;;;;;;8.80;3.37;;;;;;;13.26;100.00;99890.94;4265422;33;20058;-72
2022/10/09 09:12:23;;;;;;;10.88;3.85;;;;;;;13.22;100.00;99878.97;4273652;33;20038;-71
2022/10/09 09:15:25;;;;;;;8.93;3.40;;;;;;;12.86;100.00;99859.44;4270510;33;20080;-71
2022/10/09 09:18:03;;;;;;;11.57;3.65;;;;;;;12.85;100.00;99890.25;4272791;33;20056;-71
2022/10/09 09:20:42;;;;;;;7.72;3.35;;;;;;;12.81;100.00;99884.53;4277697;33;20070;-76
2022/10/09 09:23:14;;;;;;;16.62;7.97;;;;;;;12.76;100.00;99848.47;4305469;33;20094;-72
2022/10/09 09:25:42;;;;;;;6.78;3.08;;;;;;;13.11;100.00;99896.09;4295853;33;20053;-71
2022/10/09 09:28:29;;;;;;;5.10;3.42;;;;;;;12.96;100.00;99856.13;4296185;33;20044;-72
2022/10/09 09:31:22;;;;;;;6.18;3.45;;;;;;;12.95;100.00;99849.88;4290044;33;20481;-71
2022/10/09 09:34:03;;;;;;;8.02;3.80;;;;;;;13.42;100.00;99895.56;4292514;33;20037;-70
2022/10/09 09:36:50;;;;;;;8.25;3.67;;;;;;;13.50;100.00;99896.19;4299314;33;20045;-72
2022/10/09 09:39:17;;;;;;;14.20;4.15;;;;;;;13.25;100.00;99900.13;4307699;33;20122;-70
2022/10/09 09:41:44;;;;;;;7.37;3.90;;;;;;;13.30;100.00;99867.72;4306530;33;20052;-77
2022/10/09 09:44:16;;;;;;;7.82;5.32;;;;;;;13.20;100.00;99905.44;4309688;33;20048;-71
2022/10/09 09:46:49;;;;;;;9.93;4.03;;;;;;;13.33;100.00;99891.63;4306523;33;20055;-71
2022/10/09 09:49:22;;;;;;;9.52;5.47;;;;;;;13.09;100.00;99853.88;4306973;33;20074;-73
2022/10/09 09:51:49;;;;;;;7.87;3.10;;;;;;;13.55;100.00;99904.41;4300724;33;20058;-71
2022/10/09 09:54:23;;;;;;;9.02;2.42;;;;;;;13.48;100.00;99909.16;4300660;33;20074;-71
2022/10/09 09:56:54;;;;;;;15.27;3.65;;;;;;;13.47;100.00;99910.22;4306777;33;20112;-70
2022/10/09 09:59:37;;;;;;;4.12;2.62;;;;;;;13.27;100.00;99866.38;4291176;33;20190;-76
2022/10/09 10:02:22;;;;;;;7.03;3.05;;;;;;;13.58;100.00;99901.19;4289663;33;20404;-72
2022/10/09 10:04:51;;;;;;;4.10;2.33;;;;;;;13.83;100.00;99905.31;4289749;33;20091;-75
2022/10/09 10:07:36;;;;;;;13.55;2.72;;;;;;;13.89;100.00;99904.31;4276807;33;20627;-72
2022/10/09 10:10:04;;;;;;;5.87;2.25;;;;;;;13.94;100.00;99912.50;4263855;33;20057;-71
2022/10/09 10:12:30;;;;;;;4.05;2.30;;;;;;;13.80;100.00;99907.47;4264902;33;20029;-71
2022/10/09 10:14:57;;;;;;;4.82;2.58;;;;;;;14.00;100.00;99916.94;4274038;33;20466;-69
2022/10/09 10:17:29;;;;;;;14.45;3.47;;;;;;;14.01;100.00;99891.50;4269720;33;20097;-69
2022/10/09 10:19:55;;;;;;;10.00;3.17;;;;;;;14.25;100.00;99866.84;4265246;33;20060;-69
2022/10/09 10:22:24;;;;;;;12.80;2.47;;;;;;;14.45;100.00;99923.97;4264777;33;20354;-73
2022/10/09 10:24:55;;;;;;;4.45;2.33;;;;;;;13.81;100.00;99924.53;4250178;33;20054;-76
2022/10/09 10:27:42;;;;;;;4.60;2.20;;;;;;;13.70;100.00;99922.72;4251764;33;21028;-71
2022/10/09 10:30:14;;;;;;;7.12;2.78;;;;;;;13.68;100.00;99914.88;4258289;33;20105;-73
2022/10/09 10:32:50;;;;;;;5.18;2.40;;;;;;;13.91;100.00;99918.44;4260846;33;20045;-73
2022/10/09 10:35:22;;;;;;;3.47;2.33;;;;;;;13.71;100.00;99919.78;4261887;33;20046;-71
2022/10/09 10:37:59;;;;;;;9.27;4.75;;;;;;;13.85;100.00;99924.84;4267688;33;20085;-72
2022/10/09 10:40:54;;;;;;;8.30;3.22;;;;;;;14.17;100.00;99914.19;4255119;33;20058;-72
2022/10/09 10:43:23;;;;;;;5.22;2.85;;;;;;;14.81;100.00;99918.97;4254827;33;20785;-73
2022/10/09 10:46:30;;;;;;;5.65;2.83;;;;;;;15.00;100.00;99919.44;4254312;33;20429;-70
2022/10/09 10:48:58;;;;;;;5.45;2.72;;;;;;;15.01;100.00;99928.38;4240121;33;20477;-71
2022/10/09 10:51:40;;;;;;;5.60;2.87;;;;;;;14.77;100.00;99898.88;4240847;33;20046;-71
2022/10/09 10:54:12;;;;;;;8.35;3.22;;;;;;;14.78;100.00;99922.19;4225544;33;20065;-72
2022/10/09 10:56:41;;;;;;;5.22;2.72;;;;;;;14.75;100.00;99922.72;4217467;33;20061;-71
2022/10/09 10:59:27;;;;;;;7.93;3.62;;;;;;;15.15;100.00;99886.19;4213712;33;20070;-71
2022/10/09 11:02:06;;;;;;;4.47;2.17;;;;;;;16.31;100.00;99924.37;4217226;33;20038;-71
2022/10/09 11:04:43;;;;;;;7.85;2.03;;;;;;;16.52;100.00;99897.28;4225918;33;20046;-71
2022/10/09 11:07:31;;;;;;;3.28;2.05;;;;;;;16.85;100.00;99931.38;4229602;33;20120;-71
2022/10/09 11:10:17;;;;;;;8.35;1.90;;;;;;;17.15;100.00;99928.94;4232229;33;20187;-73
2022/10/09 11:13:23;;;;;;;3.62;1.80;;;;;;;17.27;100.00;99925.97;4244045;33;20062;-71
2022/10/09 11:16:17;;;;;;;3.45;1.77;;;;;;;16.79;100.00;99926.16;4240175;33;20496;-71
2022/10/09 11:19:03;;;;;;;9.95;2.47;;;;;;;16.10;100.00;99930.84;4262369;33;20180;-71
2022/10/09 11:22:03;;;;;;;11.52;2.75;;;;;;;16.25;100.00;99925.44;4257262;33;20962;-71
2022/10/09 11:25:00;;;;;;;5.40;2.50;;;;;;;16.10;100.00;99930.84;4260826;33;20301;-73
2022/10/09 11:27:44;;;;;;;6.45;2.90;;;;;;;15.90;100.00;99926.91;4263537;33;20107;-71
2022/10/09 11:30:14;;;;;;;4.18;1.98;;;;;;;16.06;100.00;99924.28;4262234;33;20037;-77
2022/10/09 11:33:04;;;;;;;6.82;2.80;;;;;;;16.01;100.00;99921.53;4264365;33;20041;-71
2022/10/09 11:35:46;;;;;;;7.25;2.75;;;;;;;15.83;100.00;99888.31;4263885;33;20054;-70
2022/10/09 11:38:32;;;;;;;8.00;2.50;;;;;;;15.87;100.00;99922.00;4266687;33;20045;-71
2022/10/09 11:41:00;;;;;;;4.30;1.92;;;;;;;15.23;100.00;99836.88;4267174;33;20079;-71
2022/10/09 11:43:27;;;;;;;2.40;2.20;;;;;;;15.46;100.00;99899.16;4267166;33;20033;-76